createdAt,value
2022-11-08T00:05:17.973Z,99736.31
2022-11-08T00:10:40.071Z,99743.50
2022-11-08T00:15:43.442Z,99744.06
2022-11-08T00:20:46.936Z,99747.66
2022-11-08T00:25:56.079Z,99748.97
2022-11-08T00:30:59.298Z,99750.25
2022-11-08T00:36:03.586Z,99741.78
2022-11-08T00:41:08.294Z,99755.75
2022-11-08T00:46:11.505Z,99738.06
2022-11-08T00:51:14.782Z,99752.66
2022-11-08T00:56:19.468Z,99750.84
2022-11-08T01:01:23.170Z,99746.34
2022-11-08T01:06:27.416Z,99752.75
2022-11-08T01:11:32.610Z,99748.44
2022-11-08T01:16:36.533Z,99744.66
2022-11-08T01:21:39.850Z,99741.06
2022-11-08T01:26:44.496Z,99734.09
2022-11-08T01:31:47.481Z,99740.78
2022-11-08T01:36:50.773Z,99751.44
2022-11-08T01:41:55.504Z,99751.06
2022-11-08T01:46:58.481Z,99759.25
2022-11-08T01:52:12.034Z,99747.00
2022-11-08T01:57:22.369Z,99760.94
2022-11-08T02:02:25.864Z,99763.66
2022-11-08T02:07:32.391Z,99759.44
2022-11-08T02:12:37.185Z,99763.66
2022-11-08T02:17:40.566Z,99746.44
2022-11-08T02:22:49.991Z,99741.09
2022-11-08T02:27:54.563Z,99748.06
2022-11-08T02:32:57.806Z,99733.28
2022-11-08T02:38:01.040Z,99725.34
2022-11-08T02:43:05.695Z,99699.28
2022-11-08T02:48:09.001Z,99704.53
2022-11-08T02:53:12.559Z,99695.91
2022-11-08T02:58:17.569Z,99697.28
2022-11-08T03:03:20.986Z,99686.66
2022-11-08T03:08:24.306Z,99682.16
2022-11-08T03:13:28.972Z,99692.41
2022-11-08T03:18:31.970Z,99684.97
2022-11-08T03:23:35.252Z,99690.91
2022-11-08T03:28:40.057Z,99694.38
2022-11-08T03:33:43.419Z,99702.28
2022-11-08T03:38:46.657Z,99700.25
2022-11-08T03:43:51.342Z,99699.81
2022-11-08T03:48:54.283Z,99710.94
2022-11-08T03:53:57.520Z,99716.56
2022-11-08T03:59:02.138Z,99720.16
2022-11-08T04:04:05.831Z,99718.28
2022-11-08T04:09:09.228Z,99722.31
2022-11-08T04:14:31.236Z,99728.06
2022-11-08T04:19:51.901Z,99721.94
2022-11-08T04:24:55.099Z,99728.25
2022-11-08T04:29:59.753Z,99730.78
2022-11-08T04:35:02.918Z,99729.28
2022-11-08T04:40:07.103Z,99713.25
2022-11-08T04:45:12.470Z,99720.25
2022-11-08T04:50:16.102Z,99712.53
2022-11-08T04:55:19.676Z,99709.69
2022-11-08T05:00:24.354Z,99721.09
2022-11-08T05:05:27.370Z,99716.03
2022-11-08T05:10:30.662Z,99699.16
2022-11-08T05:15:35.327Z,99707.16
2022-11-08T05:20:55.841Z,99704.53
2022-11-08T05:25:59.637Z,99689.47
2022-11-08T05:31:04.925Z,99681.28
2022-11-08T05:36:10.559Z,99673.88
2022-11-08T05:41:16.533Z,99671.44
2022-11-08T05:46:22.803Z,99668.59
2022-11-08T05:51:26.276Z,99648.72
2022-11-08T05:56:29.588Z,99617.59
2022-11-08T06:01:34.555Z,99608.28
2022-11-08T06:06:37.857Z,99602.34
2022-11-08T06:11:41.137Z,99611.38
2022-11-08T06:16:45.906Z,99588.63
2022-11-08T06:21:48.949Z,99579.97
2022-11-08T06:26:52.242Z,99601.41
2022-11-08T06:31:58.910Z,99620.69
2022-11-08T06:37:02.161Z,99637.53
2022-11-08T06:42:05.747Z,99628.69
2022-11-08T06:47:10.362Z,99639.88
2022-11-08T06:52:13.624Z,99634.34
2022-11-08T06:57:16.827Z,99622.47
2022-11-08T07:02:21.695Z,99608.16
2022-11-08T07:07:25.131Z,99596.50
2022-11-08T07:12:28.376Z,99572.81
2022-11-08T07:17:38.267Z,99560.66
2022-11-08T07:22:41.941Z,99583.25
2022-11-08T07:27:45.256Z,99604.03
2022-11-08T07:32:49.957Z,99611.66
2022-11-08T07:37:53.069Z,99624.53
2022-11-08T07:43:14.740Z,99621.91
2022-11-08T07:48:19.420Z,99638.38
2022-11-08T07:53:23.018Z,99660.50
2022-11-08T07:58:26.721Z,99684.47
2022-11-08T08:03:32.233Z,99703.22
2022-11-08T08:08:35.529Z,99714.75
2022-11-08T08:13:38.822Z,99723.13
2022-11-08T08:18:43.599Z,99751.63
2022-11-08T08:23:46.525Z,99771.78
2022-11-08T08:28:49.822Z,99789.44
2022-11-08T08:33:54.559Z,99774.69
2022-11-08T08:38:57.529Z,99774.44
2022-11-08T08:44:00.806Z,99788.56
2022-11-08T08:49:05.509Z,99799.19
2022-11-08T08:54:08.493Z,99816.25
2022-11-08T09:04:37.381Z,99815.13
2022-11-08T09:09:40.670Z,99814.97
2022-11-08T09:14:43.921Z,99824.47
2022-11-08T09:19:51.892Z,99837.53
2022-11-08T09:24:57.740Z,99850.97
2022-11-08T09:30:01.253Z,99846.38
2022-11-08T09:35:06.432Z,99858.34
2022-11-08T09:45:30.391Z,99850.69
2022-11-08T09:50:39.845Z,99850.09
2022-11-08T09:55:46.699Z,99841.69
2022-11-08T10:00:51.265Z,99841.94
2022-11-08T10:06:22.736Z,99837.19
2022-11-08T10:11:41.096Z,99848.63
2022-11-08T10:16:54.295Z,99844.03
2022-11-08T10:22:03.737Z,99836.50
2022-11-08T10:27:16.237Z,99827.94
2022-11-08T10:32:22.028Z,99829.00
2022-11-08T10:37:27.697Z,99823.03
2022-11-08T10:42:46.082Z,99823.50
2022-11-08T10:47:49.414Z,99825.38
2022-11-08T10:53:01.412Z,99804.97
2022-11-08T10:58:05.147Z,99795.13
2022-11-08T11:03:29.120Z,99780.75
2022-11-08T11:08:36.591Z,99780.19
2022-11-08T11:13:39.898Z,99791.56
2022-11-08T11:18:50.709Z,99771.88
2022-11-08T11:23:58.280Z,99769.16
2022-11-08T11:29:21.508Z,99773.56
2022-11-08T11:34:50.399Z,99779.84
2022-11-08T11:40:03.910Z,99785.03
2022-11-08T11:45:17.504Z,99783.72
2022-11-08T11:50:30.533Z,99770.63
2022-11-08T11:55:50.941Z,99797.97
2022-11-08T12:00:59.281Z,99781.06
2022-11-08T12:06:20.660Z,99757.53
2022-11-08T12:11:38.529Z,99739.47
2022-11-08T12:16:52.605Z,99735.72
2022-11-08T12:22:04.133Z,99758.47
2022-11-08T12:27:23.179Z,99777.78
2022-11-08T12:32:48.037Z,99770.16
2022-11-08T12:38:05.308Z,99751.94
2022-11-08T12:43:20.309Z,99744.31
2022-11-08T12:48:35.526Z,99739.22
2022-11-08T12:53:50.570Z,99735.56
2022-11-08T12:58:56.552Z,99720.69
2022-11-08T13:04:20.353Z,99729.91
2022-11-08T13:09:34.649Z,99726.53
2022-11-08T13:14:41.437Z,99734.34
2022-11-08T13:20:00.775Z,99735.59
2022-11-08T13:25:10.299Z,99733.84
2022-11-08T13:30:37.642Z,99727.09
2022-11-08T13:35:49.987Z,99712.16
2022-11-08T13:41:18.563Z,99716.47
2022-11-08T13:46:56.349Z,99718.75
2022-11-08T13:52:36.780Z,99722.41
2022-11-08T13:58:28.901Z,99708.47
2022-11-08T14:03:58.401Z,99714.69
2022-11-08T14:09:10.604Z,99708.31
2022-11-08T14:14:44.426Z,99704.34
2022-11-08T14:19:49.913Z,99703.53
2022-11-08T14:24:55.577Z,99700.31
2022-11-08T14:30:01.339Z,99704.75
2022-11-08T14:35:22.042Z,99705.97
2022-11-08T14:40:28.030Z,99707.75
2022-11-08T14:45:31.207Z,99697.66
2022-11-08T14:50:36.373Z,99706.97
2022-11-08T14:55:39.600Z,99709.81
2022-11-08T15:00:44.408Z,99709.63
2022-11-08T15:05:56.913Z,99719.78
2022-11-08T15:11:04.024Z,99720.53
2022-11-08T15:16:09.018Z,99720.53
2022-11-08T15:21:27.614Z,99719.13
2022-11-08T15:26:34.797Z,99726.41
2022-11-08T15:31:41.374Z,99736.19
2022-11-08T15:36:46.210Z,99727.91
2022-11-08T15:42:01.033Z,99726.56
2022-11-08T15:47:03.949Z,99730.81
2022-11-08T15:52:08.533Z,99731.28
2022-11-08T15:57:12.456Z,99732.22
2022-11-08T16:02:16.015Z,99732.97
2022-11-08T16:07:20.607Z,99739.19
2022-11-08T16:12:23.569Z,99740.50
2022-11-08T16:17:26.730Z,99740.50
2022-11-08T16:22:31.262Z,99755.00
2022-11-08T16:27:34.533Z,99753.88
2022-11-08T16:32:37.705Z,99759.34
2022-11-08T16:37:42.790Z,99764.78
2022-11-08T16:42:46.298Z,99772.22
2022-11-08T16:47:51.593Z,99775.25
2022-11-08T16:52:56.165Z,99787.97
2022-11-08T16:57:59.271Z,99783.81
2022-11-08T17:03:03.049Z,99790.16
2022-11-08T17:08:07.677Z,99792.22
2022-11-08T17:13:14.211Z,99792.78
2022-11-08T17:18:19.230Z,99801.25
2022-11-08T17:23:23.986Z,99798.38
2022-11-08T17:28:27.141Z,99814.16
2022-11-08T17:33:30.412Z,99807.78
2022-11-08T17:38:36.639Z,99810.09
2022-11-08T17:43:40.046Z,99821.91
2022-11-08T17:48:43.163Z,99823.72
2022-11-08T17:53:47.693Z,99841.53
2022-11-08T17:58:50.810Z,99844.94
2022-11-08T18:03:53.956Z,99844.84
2022-11-08T18:08:58.794Z,99850.69
2022-11-08T18:14:01.702Z,99863.75
2022-11-08T18:19:04.910Z,99872.91
2022-11-08T18:24:09.538Z,99871.47
2022-11-08T18:29:12.724Z,99873.97
2022-11-08T18:34:15.868Z,99880.59
2022-11-08T18:39:20.476Z,99880.69
2022-11-08T18:44:24.205Z,99880.91
2022-11-08T18:49:27.393Z,99900.63
2022-11-08T18:54:31.960Z,99904.59
2022-11-08T18:59:35.163Z,99918.03
2022-11-08T19:04:38.363Z,99922.91
2022-11-08T19:09:42.920Z,99927.59
2022-11-08T19:14:46.086Z,99930.16
2022-11-08T19:19:49.278Z,99934.72
2022-11-08T19:24:53.946Z,99929.06
2022-11-08T19:30:00.466Z,99939.28
2022-11-08T19:35:03.772Z,99946.38
2022-11-08T19:40:10.039Z,99943.28
2022-11-08T19:45:13.161Z,99948.47
2022-11-08T19:50:16.475Z,99954.19
2022-11-08T19:55:21.015Z,99966.34
2022-11-08T20:00:24.178Z,99972.88
2022-11-08T20:05:28.387Z,99978.78
2022-11-08T20:10:33.127Z,99977.38
2022-11-08T20:15:36.256Z,99985.25
2022-11-08T20:20:40.466Z,99987.22
2022-11-08T20:25:45.229Z,99992.22
2022-11-08T20:30:48.382Z,99990.56
2022-11-08T20:35:51.513Z,99997.72
2022-11-08T20:40:56.100Z,100004.91
2022-11-08T20:46:02.450Z,100003.28
2022-11-08T20:51:08.358Z,100010.22
2022-11-08T20:56:15.758Z,100012.50
2022-11-08T21:01:21.649Z,100012.28
2022-11-08T21:06:26.627Z,100012.28
2022-11-08T21:11:31.343Z,100014.19
2022-11-08T21:16:59.358Z,100008.94
2022-11-08T21:22:15.235Z,100025.34
2022-11-08T21:27:19.919Z,100017.13
2022-11-08T21:32:23.071Z,100035.53
2022-11-08T21:37:26.224Z,100047.66
2022-11-08T21:42:34.169Z,100057.78
2022-11-08T21:47:39.788Z,100054.75
2022-11-08T21:52:42.931Z,100065.56
2022-11-08T21:57:47.508Z,100064.69
2022-11-08T22:02:50.681Z,100057.91
2022-11-08T22:07:53.835Z,100063.28
2022-11-08T22:12:58.398Z,100064.53
2022-11-08T22:18:15.002Z,100076.03
2022-11-08T22:23:19.401Z,100071.28
2022-11-08T22:28:24.015Z,100074.53
2022-11-08T22:33:27.231Z,100071.09
2022-11-08T22:38:30.366Z,100076.25
2022-11-08T22:43:36.275Z,100076.31
2022-11-08T22:48:39.406Z,100076.75
2022-11-08T22:53:42.778Z,100081.13
2022-11-08T22:58:47.338Z,100078.50
2022-11-08T23:03:50.469Z,100079.16
2022-11-08T23:08:53.621Z,100075.63
2022-11-08T23:14:15.666Z,100073.63
2022-11-08T23:19:38.695Z,100069.31
2022-11-08T23:24:42.417Z,100073.63
2022-11-08T23:30:04.329Z,100070.31
2022-11-08T23:35:07.735Z,100080.84
2022-11-08T23:40:30.152Z,100075.47
2022-11-08T23:45:34.824Z,100076.91
2022-11-08T23:50:37.966Z,100073.34
2022-11-08T23:55:41.112Z,100069.03
